createdAt,value
2022-12-05T00:02:31.340Z,42.15
2022-12-05T00:07:28.828Z,36.42
2022-12-05T00:12:25.236Z,39.60
2022-12-05T00:17:21.660Z,40.15
2022-12-05T00:22:18.024Z,35.92
2022-12-05T00:27:14.437Z,39.90
2022-12-05T00:32:10.849Z,40.13
2022-12-05T00:37:07.296Z,36.15
2022-12-05T00:42:03.817Z,38.70
2022-12-05T00:47:00.306Z,33.90
2022-12-05T00:51:56.709Z,38.22
2022-12-05T00:56:56.157Z,36.17
2022-12-05T01:01:52.661Z,35.38
2022-12-05T01:06:50.681Z,34.03
2022-12-05T01:11:48.035Z,30.25
2022-12-05T01:16:46.564Z,29.05
2022-12-05T01:21:43.494Z,29.52
2022-12-05T01:26:41.521Z,30.95
2022-12-05T01:31:38.393Z,29.90
2022-12-05T01:36:34.974Z,28.42
2022-12-05T01:41:34.394Z,27.27
2022-12-05T01:46:33.815Z,34.55
2022-12-05T01:51:32.897Z,32.30
2022-12-05T01:56:32.706Z,26.60
2022-12-05T02:01:29.212Z,32.78
2022-12-05T02:06:27.191Z,33.47
2022-12-05T02:11:26.744Z,28.73
2022-12-05T02:16:52.902Z,27.98
2022-12-05T02:22:05.444Z,25.98
2022-12-05T02:27:27.185Z,29.45
2022-12-05T02:32:39.219Z,26.65
2022-12-05T02:38:12.001Z,28.15
2022-12-05T02:43:16.368Z,23.67
2022-12-05T02:48:15.847Z,29.40
2022-12-05T02:53:15.400Z,28.13
2022-12-05T02:58:17.205Z,30.15
2022-12-05T03:03:18.387Z,28.65
2022-12-05T03:08:21.540Z,30.77
2022-12-05T03:13:25.293Z,24.65
2022-12-05T03:18:26.517Z,32.03
2022-12-05T03:23:31.270Z,34.63
2022-12-05T03:28:37.734Z,31.13
2022-12-05T03:33:42.591Z,22.25
2022-12-05T03:39:01.672Z,28.13
2022-12-05T03:44:07.549Z,26.02
2022-12-05T03:49:34.763Z,25.25
2022-12-05T03:54:37.669Z,24.40
2022-12-05T03:59:47.325Z,25.00
2022-12-05T04:05:09.908Z,21.23
2022-12-05T04:10:12.501Z,23.85
2022-12-05T04:15:14.922Z,23.17
2022-12-05T04:20:38.819Z,19.10
2022-12-05T04:26:09.668Z,25.67
2022-12-05T04:31:22.873Z,24.67
2022-12-05T04:36:24.652Z,26.75
2022-12-05T04:41:26.289Z,25.10
2022-12-05T04:46:24.436Z,25.85
2022-12-05T04:51:26.685Z,25.08
2022-12-05T04:56:29.337Z,24.95
2022-12-05T05:01:38.430Z,22.23
2022-12-05T05:06:38.458Z,30.00
2022-12-05T05:11:35.624Z,29.10
2022-12-05T05:16:37.875Z,27.95
2022-12-05T05:21:36.643Z,24.45
2022-12-05T05:26:40.886Z,26.85
2022-12-05T05:31:38.611Z,34.70
2022-12-05T05:36:35.486Z,28.42
2022-12-05T05:41:34.793Z,27.42
2022-12-05T05:46:35.016Z,26.92
2022-12-05T05:51:32.187Z,27.15
2022-12-05T05:56:29.340Z,32.67
2022-12-05T06:01:26.625Z,31.63
2022-12-05T06:06:23.490Z,32.00
2022-12-05T06:11:25.746Z,30.45
2022-12-05T06:16:24.562Z,29.73
2022-12-05T06:21:21.904Z,31.13
2022-12-05T06:26:20.622Z,35.05
2022-12-05T06:31:22.197Z,27.73
2022-12-05T06:36:21.942Z,28.63
2022-12-05T06:41:20.477Z,28.75
2022-12-05T06:46:17.215Z,32.38
2022-12-05T06:51:16.054Z,27.38
2022-12-05T06:56:16.047Z,33.00
2022-12-05T07:01:36.079Z,26.48
2022-12-05T07:06:34.147Z,25.27
2022-12-05T07:11:30.753Z,23.00
2022-12-05T07:16:27.283Z,26.58
2022-12-05T07:21:24.114Z,32.17
2022-12-05T07:26:23.532Z,29.30
2022-12-05T07:31:22.580Z,25.50
2022-12-05T07:36:22.399Z,24.20
2022-12-05T07:41:27.406Z,20.45
2022-12-05T07:46:25.084Z,25.83
2022-12-05T07:51:22.336Z,23.13
2022-12-05T07:56:19.112Z,25.20
2022-12-05T08:01:24.547Z,19.23
2022-12-05T08:06:24.120Z,23.45
2022-12-05T08:11:22.985Z,20.60
2022-12-05T08:21:19.306Z,19.65
2022-12-05T08:26:20.991Z,14.20
2022-12-05T08:31:19.103Z,14.57
2022-12-05T08:36:15.795Z,10.20
2022-12-05T08:41:16.456Z,15.43
2022-12-05T08:46:13.095Z,16.20
2022-12-05T08:51:11.464Z,17.23
2022-12-05T08:56:09.277Z,17.35
2022-12-05T09:01:15.059Z,14.55
2022-12-05T09:06:14.788Z,18.58
2022-12-05T09:11:17.573Z,24.60
2022-12-05T09:16:19.991Z,18.73
2022-12-05T09:21:22.914Z,22.15
2022-12-05T09:26:22.871Z,19.70
2022-12-05T09:31:22.049Z,20.88
2022-12-05T09:36:19.860Z,19.25
2022-12-05T09:42:02.986Z,17.98
2022-12-05T09:47:05.496Z,19.30
2022-12-05T09:52:03.342Z,20.83
2022-12-05T09:57:00.686Z,13.57
2022-12-05T10:02:16.561Z,14.85
2022-12-05T10:07:25.299Z,18.30
2022-12-05T10:12:27.682Z,19.00
2022-12-05T10:17:30.704Z,17.13
2022-12-05T10:22:45.087Z,17.83
2022-12-05T10:27:50.564Z,13.23
2022-12-05T10:32:57.594Z,16.73
2022-12-05T10:37:59.765Z,16.88
2022-12-05T10:42:56.192Z,20.92
2022-12-05T10:47:57.357Z,14.73
2022-12-05T10:52:55.769Z,16.55
2022-12-05T10:58:11.436Z,12.55
2022-12-05T11:03:31.844Z,15.75
2022-12-05T11:09:02.672Z,17.00
2022-12-05T11:13:57.396Z,14.50
2022-12-05T11:18:54.027Z,15.55
2022-12-05T11:23:50.584Z,14.35
2022-12-05T11:28:47.126Z,17.33
2022-12-05T11:34:02.228Z,15.07
2022-12-05T11:38:58.808Z,15.48
2022-12-05T11:44:06.989Z,16.88
2022-12-05T11:49:20.128Z,15.53
2022-12-05T11:54:41.797Z,13.82
2022-12-05T12:00:03.404Z,15.95
2022-12-05T12:05:24.446Z,11.48
2022-12-05T12:10:38.334Z,11.18
2022-12-05T12:15:48.832Z,17.48
2022-12-05T12:21:30.771Z,16.00
2022-12-05T12:26:47.066Z,13.38
2022-12-05T12:31:49.330Z,19.70
2022-12-05T12:36:52.141Z,14.07
2022-12-05T12:42:09.928Z,13.75
2022-12-05T12:47:40.649Z,9.95
2022-12-05T12:52:55.724Z,11.82
2022-12-05T12:58:01.400Z,13.27
2022-12-05T13:03:11.965Z,11.50
2022-12-05T13:08:26.257Z,15.63
2022-12-05T13:13:30.617Z,16.80
2022-12-05T13:18:27.630Z,12.48
2022-12-05T13:23:28.375Z,12.20
2022-12-05T13:28:35.727Z,15.55
2022-12-05T13:33:50.935Z,16.30
2022-12-05T13:39:06.012Z,15.77
2022-12-05T13:44:12.311Z,25.25
2022-12-05T13:49:30.033Z,14.23
2022-12-05T13:54:28.238Z,14.85
2022-12-05T14:00:04.803Z,20.63
2022-12-05T14:05:02.387Z,17.13
2022-12-05T14:09:58.944Z,12.55
2022-12-05T14:14:55.384Z,20.15
2022-12-05T14:20:05.120Z,12.07
2022-12-05T14:25:13.841Z,14.90
2022-12-05T14:30:23.380Z,10.38
2022-12-05T14:35:28.667Z,15.30
2022-12-05T14:40:39.181Z,19.40
2022-12-05T14:45:55.806Z,23.23
2022-12-05T14:50:54.963Z,14.70
2022-12-05T14:56:03.418Z,15.18
2022-12-05T15:01:03.176Z,14.98
2022-12-05T15:06:04.064Z,18.60
2022-12-05T15:11:01.161Z,15.73
2022-12-05T15:16:15.467Z,20.48
2022-12-05T15:21:33.420Z,12.23
2022-12-05T15:26:46.968Z,11.60
2022-12-05T15:31:45.929Z,15.80
2022-12-05T15:36:51.052Z,11.73
2022-12-05T15:41:47.443Z,13.55
2022-12-05T15:46:43.915Z,14.77
2022-12-05T15:51:40.497Z,13.10
2022-12-05T15:56:50.285Z,13.05
2022-12-05T16:01:52.422Z,15.18
2022-12-05T16:06:52.607Z,14.25
2022-12-05T16:11:58.900Z,12.65
2022-12-05T16:17:02.707Z,16.65
2022-12-05T16:22:14.661Z,15.65
2022-12-05T16:27:32.990Z,25.02
2022-12-05T16:32:29.342Z,13.13
2022-12-05T16:37:27.898Z,23.50
2022-12-05T16:42:26.028Z,21.13
2022-12-05T16:47:24.749Z,28.27
2022-12-05T16:52:21.640Z,28.35
2022-12-05T16:57:18.137Z,20.00
2022-12-05T17:02:17.220Z,25.98
2022-12-05T17:07:13.660Z,22.98
2022-12-05T17:12:23.780Z,35.15
2022-12-05T17:17:20.105Z,17.05
2022-12-05T17:22:16.747Z,26.33
2022-12-05T17:27:14.365Z,19.88
2022-12-05T17:32:11.540Z,19.77
2022-12-05T17:37:07.896Z,17.10
2022-12-05T17:42:04.721Z,21.58
2022-12-05T17:47:07.508Z,28.05
2022-12-05T17:52:21.881Z,33.35
2022-12-05T17:57:18.894Z,24.80
2022-12-05T18:02:17.337Z,20.48
2022-12-05T18:07:13.785Z,23.35
2022-12-05T18:12:10.181Z,21.20
2022-12-05T18:17:06.725Z,23.77
2022-12-05T18:22:03.024Z,26.60
2022-12-05T18:26:59.480Z,25.98
2022-12-05T18:31:55.873Z,15.98
2022-12-05T18:36:52.292Z,16.63
2022-12-05T18:41:48.650Z,16.38
2022-12-05T18:46:44.945Z,17.38
2022-12-05T18:51:41.817Z,17.40
2022-12-05T18:56:39.987Z,18.90
2022-12-05T19:01:39.219Z,18.30
2022-12-05T19:06:36.708Z,16.48
2022-12-05T19:11:33.791Z,16.45
2022-12-05T19:16:32.185Z,19.35
2022-12-05T19:21:30.481Z,19.02
2022-12-05T19:26:27.653Z,18.17
2022-12-05T19:31:26.460Z,19.73
2022-12-05T19:36:24.197Z,16.77
2022-12-05T19:41:23.545Z,19.20
2022-12-05T19:46:25.320Z,19.65
2022-12-05T19:51:21.722Z,22.00
2022-12-05T19:56:21.118Z,17.58
2022-12-05T20:01:27.967Z,19.08
2022-12-05T20:06:25.311Z,14.50
2022-12-05T20:11:24.866Z,16.08
2022-12-05T20:16:23.439Z,17.40
2022-12-05T20:21:22.079Z,21.70
2022-12-05T20:26:22.271Z,15.10
2022-12-05T20:31:21.334Z,19.13
2022-12-05T20:36:20.589Z,18.02
2022-12-05T20:41:18.529Z,17.08
2022-12-05T20:46:17.891Z,16.27
2022-12-05T20:51:25.912Z,17.08
2022-12-05T20:56:28.294Z,13.53
2022-12-05T21:01:26.118Z,19.10
2022-12-05T21:06:25.207Z,17.70
2022-12-05T21:11:23.143Z,16.80
2022-12-05T21:16:21.457Z,11.33
2022-12-05T21:21:23.652Z,17.00
2022-12-05T21:26:21.924Z,17.33
2022-12-05T21:31:21.956Z,24.08
2022-12-05T21:36:18.641Z,21.15
2022-12-05T21:41:15.324Z,22.23
2022-12-05T21:46:12.005Z,22.90
2022-12-05T21:51:09.631Z,18.60
2022-12-05T21:56:10.729Z,17.55
2022-12-05T22:01:07.101Z,20.73
2022-12-05T22:06:09.070Z,23.63
2022-12-05T22:11:06.903Z,20.08
2022-12-05T22:16:04.163Z,25.75
2022-12-05T22:21:07.197Z,22.70
2022-12-05T22:26:24.220Z,24.65
2022-12-05T22:31:21.595Z,26.85
2022-12-05T22:36:19.572Z,22.10
2022-12-05T22:41:21.538Z,25.93
2022-12-05T22:46:19.905Z,28.65
2022-12-05T22:51:17.924Z,37.05
2022-12-05T22:56:16.356Z,22.73
2022-12-05T23:01:21.234Z,19.60
2022-12-05T23:06:18.016Z,16.65
2022-12-05T23:11:16.244Z,20.15
2022-12-05T23:16:15.196Z,20.45
2022-12-05T23:21:19.781Z,19.98
2022-12-05T23:26:17.949Z,18.65
2022-12-05T23:31:14.935Z,15.37
2022-12-05T23:36:12.371Z,19.02
2022-12-05T23:41:18.471Z,17.23
2022-12-05T23:46:16.856Z,16.45
2022-12-05T23:51:24.161Z,18.10
2022-12-05T23:56:23.575Z,14.98
